PASV/SVW METAR and TAF weather

Enter ICAO airport designator
Station Type Date Time Source
PASV METAR 2022/11/30 15:55 UTC NOAA

PASV 301555Z AUTO 00000KT 10SM BKN160 M10/M21 A3029 RMK AO2 SLP321 T11001214


Station Type Date Time Source
PASV Decoded METAR 2022/11/30 15:55 UTC NOAA

Sparrevohn Airways Facilities Sector, AK, United States (PASV) 61-06N 155-34W
Nov 30, 2022 - 10:55 AM EST / 2022.11.30 1555 UTC
Wind: Calm:0
Visibility: 10 mile(s):0
Sky conditions: mostly cloudy
Temperature: 14.0 F (-10.0 C)
Dew Point: -6.5 F (-21.4 C)
Relative Humidity: 38%
Pressure (altimeter): 30.29 in. Hg (1025 hPa)
ob: PASV 301555Z AUTO 00000KT 10SM BKN160 M10/M21 A3029 RMK AO2 SLP321 T11001214
cycle: 16

Station Type Date Time Source
PASV TAF 2012/01/12 14:57 UTC NOAA

TAF
AMD PASV 1214/1320 33010G15KT 4800 -SN BLSN SCT003 SCT110 QNH2984INS
BECMG 1221/1222 VRB06KT 9999 NSW FEW010 SCT110 QNH3000INS LIMITED METWATCH TM25/1300Z TM37/1315Z
AMD 121453

Example: see airport list